sensor_id;sensor_type;location;lat;lon;timestamp;pressure;altitude;pressure_sealevel;temperature;humidity
7824;BME280;3957;48.61947800;9.05303100;2022-07-29T00:00:05;95969.94;;;15.84;100.00
7824;BME280;3957;48.61947800;9.05303100;2022-07-29T00:01:26;95971.47;;;15.79;100.00
7824;BME280;3957;48.61947800;9.05303100;2022-07-29T00:02:47;95961.94;;;15.77;100.00
7824;BME280;3957;48.61947800;9.05303100;2022-07-29T00:04:08;95969.47;;;15.75;100.00
7824;BME280;3957;48.61947800;9.05303100;2022-07-29T00:05:29;95970.78;;;15.72;100.00
7824;BME280;3957;48.61947800;9.05303100;2022-07-29T00:06:49;95972.31;;;15.68;100.00
7824;BME280;3957;48.61947800;9.05303100;2022-07-29T00:08:10;95970.66;;;15.67;100.00
7824;BME280;3957;48.61947800;9.05303100;2022-07-29T00:09:31;95969.63;;;15.68;100.00
7824;BME280;3957;48.61947800;9.05303100;2022-07-29T00:10:52;95971.25;;;15.69;100.00
7824;BME280;3957;48.61947800;9.05303100;2022-07-29T00:12:13;95968.81;;;15.68;100.00
7824;BME280;3957;48.61947800;9.05303100;2022-07-29T00:13:34;95964.47;;;15.67;100.00
7824;BME280;3957;48.61947800;9.05303100;2022-07-29T00:14:55;95961.16;;;15.64;100.00
7824;BME280;3957;48.61947800;9.05303100;2022-07-29T00:16:16;95958.16;;;15.61;100.00
7824;BME280;3957;48.61947800;9.05303100;2022-07-29T00:17:37;95958.16;;;15.61;100.00
7824;BME280;3957;48.61947800;9.05303100;2022-07-29T00:18:58;95955.94;;;15.58;100.00
7824;BME280;3957;48.61947800;9.05303100;2022-07-29T00:20:19;95961.53;;;15.56;100.00
7824;BME280;3957;48.61947800;9.05303100;2022-07-29T00:21:40;95963.44;;;15.56;100.00
7824;BME280;3957;48.61947800;9.05303100;2022-07-29T00:23:00;95962.63;;;15.55;100.00
7824;BME280;3957;48.61947800;9.05303100;2022-07-29T00:24:21;95962.88;;;15.54;100.00
7824;BME280;3957;48.61947800;9.05303100;2022-07-29T00:25:42;95958.16;;;15.49;100.00
7824;BME280;3957;48.61947800;9.05303100;2022-07-29T00:27:03;95964.63;;;15.48;100.00
7824;BME280;3957;48.61947800;9.05303100;2022-07-29T00:28:23;95959.47;;;15.46;100.00
7824;BME280;3957;48.61947800;9.05303100;2022-07-29T00:29:44;95959.69;;;15.45;100.00
7824;BME280;3957;48.61947800;9.05303100;2022-07-29T00:31:05;95965.34;;;15.43;100.00
7824;BME280;3957;48.61947800;9.05303100;2022-07-29T00:32:26;95960.78;;;15.44;100.00
7824;BME280;3957;48.61947800;9.05303100;2022-07-29T00:33:46;95962.06;;;15.41;100.00
7824;BME280;3957;48.61947800;9.05303100;2022-07-29T00:35:08;95958.28;;;15.42;100.00
7824;BME280;3957;48.61947800;9.05303100;2022-07-29T00:36:47;95960.91;;;15.37;100.00
7824;BME280;3957;48.61947800;9.05303100;2022-07-29T00:38:08;95959.81;;;15.38;100.00
7824;BME280;3957;48.61947800;9.05303100;2022-07-29T00:39:29;95964.66;;;15.36;100.00
7824;BME280;3957;48.61947800;9.05303100;2022-07-29T00:40:49;95962.19;;;15.35;100.00
7824;BME280;3957;48.61947800;9.05303100;2022-07-29T00:42:11;95953.25;;;15.34;100.00
7824;BME280;3957;48.61947800;9.05303100;2022-07-29T00:43:31;95954.34;;;15.33;100.00
7824;BME280;3957;48.61947800;9.05303100;2022-07-29T00:44:52;95941.31;;;15.30;100.00
7824;BME280;3957;48.61947800;9.05303100;2022-07-29T00:46:13;95937.81;;;15.29;100.00
7824;BME280;3957;48.61947800;9.05303100;2022-07-29T00:47:34;95945.09;;;15.29;100.00
7824;BME280;3957;48.61947800;9.05303100;2022-07-29T00:48:54;95932.06;;;15.26;100.00
7824;BME280;3957;48.61947800;9.05303100;2022-07-29T00:50:15;95937.44;;;15.26;100.00
7824;BME280;3957;48.61947800;9.05303100;2022-07-29T00:51:37;95934.75;;;15.26;100.00
7824;BME280;3957;48.61947800;9.05303100;2022-07-29T00:52:58;95926.47;;;15.27;100.00
7824;BME280;3957;48.61947800;9.05303100;2022-07-29T00:54:19;95939.94;;;15.27;100.00
7824;BME280;3957;48.61947800;9.05303100;2022-07-29T00:55:40;95939.34;;;15.25;100.00
7824;BME280;3957;48.61947800;9.05303100;2022-07-29T00:57:01;95939.81;;;15.22;100.00
7824;BME280;3957;48.61947800;9.05303100;2022-07-29T00:58:23;95933.59;;;15.22;100.00
7824;BME280;3957;48.61947800;9.05303100;2022-07-29T00:59:44;95938.66;;;15.18;100.00
7824;BME280;3957;48.61947800;9.05303100;2022-07-29T01:01:05;95934.06;;;15.19;100.00
7824;BME280;3957;48.61947800;9.05303100;2022-07-29T01:02:26;95940.19;;;15.14;100.00
7824;BME280;3957;48.61947800;9.05303100;2022-07-29T01:03:47;95936.09;;;15.11;100.00
7824;BME280;3957;48.61947800;9.05303100;2022-07-29T01:05:08;95932.81;;;15.09;100.00
7824;BME280;3957;48.61947800;9.05303100;2022-07-29T01:06:29;95931.97;;;15.09;100.00
7824;BME280;3957;48.61947800;9.05303100;2022-07-29T01:07:53;95935.72;;;15.08;100.00
7824;BME280;3957;48.61947800;9.05303100;2022-07-29T01:09:14;95933.03;;;15.08;100.00
7824;BME280;3957;48.61947800;9.05303100;2022-07-29T01:10:38;95924.13;;;15.07;100.00
7824;BME280;3957;48.61947800;9.05303100;2022-07-29T01:12:01;95927.88;;;15.06;100.00
7824;BME280;3957;48.61947800;9.05303100;2022-07-29T01:13:22;95926.25;;;15.05;100.00
7824;BME280;3957;48.61947800;9.05303100;2022-07-29T01:14:43;95925.66;;;15.03;100.00
7824;BME280;3957;48.61947800;9.05303100;2022-07-29T01:16:18;95915.38;;;15.00;100.00
7824;BME280;3957;48.61947800;9.05303100;2022-07-29T01:17:52;95923.44;;;15.00;100.00
7824;BME280;3957;48.61947800;9.05303100;2022-07-29T01:19:33;95918.75;;;14.95;100.00
7824;BME280;3957;48.61947800;9.05303100;2022-07-29T01:25:02;95913.84;;;14.92;100.00
7824;BME280;3957;48.61947800;9.05303100;2022-07-29T01:26:49;95914.69;;;14.93;100.00
7824;BME280;3957;48.61947800;9.05303100;2022-07-29T01:29:57;95921.34;;;14.90;100.00
7824;BME280;3957;48.61947800;9.05303100;2022-07-29T01:31:24;95916.19;;;14.89;100.00
7824;BME280;3957;48.61947800;9.05303100;2022-07-29T01:32:50;95914.88;;;14.91;100.00
7824;BME280;3957;48.61947800;9.05303100;2022-07-29T01:34:20;95923.91;;;14.85;100.00
7824;BME280;3957;48.61947800;9.05303100;2022-07-29T01:35:43;95921.00;;;14.87;100.00
7824;BME280;3957;48.61947800;9.05303100;2022-07-29T01:39:01;95919.81;;;14.83;100.00
7824;BME280;3957;48.61947800;9.05303100;2022-07-29T01:40:30;95920.66;;;14.83;100.00
7824;BME280;3957;48.61947800;9.05303100;2022-07-29T01:42:05;95923.56;;;14.82;100.00
7824;BME280;3957;48.61947800;9.05303100;2022-07-29T01:43:36;95917.34;;;14.81;100.00
7824;BME280;3957;48.61947800;9.05303100;2022-07-29T01:45:05;95915.59;;;14.87;100.00
7824;BME280;3957;48.61947800;9.05303100;2022-07-29T01:46:38;95904.69;;;14.82;100.00
7824;BME280;3957;48.61947800;9.05303100;2022-07-29T01:48:06;95906.59;;;14.81;100.00
7824;BME280;3957;48.61947800;9.05303100;2022-07-29T01:49:35;95906.00;;;14.79;100.00
7824;BME280;3957;48.61947800;9.05303100;2022-07-29T01:51:14;95904.38;;;14.78;100.00
7824;BME280;3957;48.61947800;9.05303100;2022-07-29T01:52:44;95903.19;;;14.74;100.00
7824;BME280;3957;48.61947800;9.05303100;2022-07-29T01:54:19;95906.13;;;14.72;100.00
7824;BME280;3957;48.61947800;9.05303100;2022-07-29T01:55:44;95905.06;;;14.73;100.00
7824;BME280;3957;48.61947800;9.05303100;2022-07-29T01:57:08;95904.97;;;14.68;100.00
7824;BME280;3957;48.61947800;9.05303100;2022-07-29T01:58:31;95898.63;;;14.62;100.00
7824;BME280;3957;48.61947800;9.05303100;2022-07-29T01:59:53;95907.72;;;14.61;100.00
7824;BME280;3957;48.61947800;9.05303100;2022-07-29T02:01:15;95909.59;;;14.61;100.00
7824;BME280;3957;48.61947800;9.05303100;2022-07-29T02:02:39;95903.41;;;14.60;100.00
7824;BME280;3957;48.61947800;9.05303100;2022-07-29T02:04:03;95905.28;;;14.60;100.00
7824;BME280;3957;48.61947800;9.05303100;2022-07-29T02:05:27;95909.81;;;14.59;100.00
7824;BME280;3957;48.61947800;9.05303100;2022-07-29T02:06:51;95898.72;;;14.56;100.00
7824;BME280;3957;48.61947800;9.05303100;2022-07-29T02:08:13;95896.34;;;14.59;100.00
7824;BME280;3957;48.61947800;9.05303100;2022-07-29T02:09:36;95898.81;;;14.61;100.00
7824;BME280;3957;48.61947800;9.05303100;2022-07-29T02:10:59;95897.19;;;14.60;100.00
7824;BME280;3957;48.61947800;9.05303100;2022-07-29T02:12:21;95890.72;;;14.61;100.00
7824;BME280;3957;48.61947800;9.05303100;2022-07-29T02:13:44;95887.00;;;14.62;100.00
7824;BME280;3957;48.61947800;9.05303100;2022-07-29T02:15:07;95890.31;;;14.64;100.00
7824;BME280;3957;48.61947800;9.05303100;2022-07-29T02:16:30;95894.63;;;14.65;100.00
7824;BME280;3957;48.61947800;9.05303100;2022-07-29T02:17:59;95894.63;;;14.65;100.00
7824;BME280;3957;48.61947800;9.05303100;2022-07-29T02:19:23;95894.63;;;14.65;100.00
7824;BME280;3957;48.61947800;9.05303100;2022-07-29T02:20:48;95890.91;;;14.66;100.00
7824;BME280;3957;48.61947800;9.05303100;2022-07-29T02:22:11;95892.53;;;14.67;100.00
7824;BME280;3957;48.61947800;9.05303100;2022-07-29T02:23:34;95900.84;;;14.66;100.00
7824;BME280;3957;48.61947800;9.05303100;2022-07-29T02:24:57;95890.66;;;14.68;100.00
7824;BME280;3957;48.61947800;9.05303100;2022-07-29T02:26:23;95895.00;;;14.69;100.00
7824;BME280;3957;48.61947800;9.05303100;2022-07-29T02:27:45;95893.09;;;14.69;100.00
7824;BME280;3957;48.61947800;9.05303100;2022-07-29T02:29:08;95893.09;;;14.69;100.00
7824;BME280;3957;48.61947800;9.05303100;2022-07-29T02:30:31;95887.72;;;14.69;100.00
7824;BME280;3957;48.61947800;9.05303100;2022-07-29T02:31:52;95892.44;;;14.74;100.00
7824;BME280;3957;48.61947800;9.05303100;2022-07-29T02:33:15;95889.97;;;14.72;100.00
7824;BME280;3957;48.61947800;9.05303100;2022-07-29T02:34:38;95891.38;;;14.75;100.00
7824;BME280;3957;48.61947800;9.05303100;2022-07-29T02:36:00;95886.81;;;14.75;100.00
7824;BME280;3957;48.61947800;9.05303100;2022-07-29T02:37:23;95889.72;;;14.74;100.00
7824;BME280;3957;48.61947800;9.05303100;2022-07-29T02:38:45;95889.84;;;14.79;100.00
7824;BME280;3957;48.61947800;9.05303100;2022-07-29T02:40:13;95887.28;;;14.72;100.00
7824;BME280;3957;48.61947800;9.05303100;2022-07-29T02:41:40;95888.31;;;14.71;100.00
7824;BME280;3957;48.61947800;9.05303100;2022-07-29T02:43:05;95885.28;;;14.68;100.00
7824;BME280;3957;48.61947800;9.05303100;2022-07-29T02:44:27;95881.53;;;14.69;100.00
7824;BME280;3957;48.61947800;9.05303100;2022-07-29T02:45:51;95880.97;;;14.67;100.00
7824;BME280;3957;48.61947800;9.05303100;2022-07-29T02:47:20;95887.97;;;14.68;100.00
7824;BME280;3957;48.61947800;9.05303100;2022-07-29T02:48:53;95883.28;;;14.63;100.00
7824;BME280;3957;48.61947800;9.05303100;2022-07-29T02:51:43;95883.50;;;14.61;100.00
7824;BME280;3957;48.61947800;9.05303100;2022-07-29T02:53:40;95882.91;;;14.59;100.00
7824;BME280;3957;48.61947800;9.05303100;2022-07-29T02:55:07;95882.56;;;14.56;100.00
7824;BME280;3957;48.61947800;9.05303100;2022-07-29T02:56:31;95889.00;;;14.55;100.00
7824;BME280;3957;48.61947800;9.05303100;2022-07-29T02:58:27;95882.06;;;14.47;100.00
7824;BME280;3957;48.61947800;9.05303100;2022-07-29T02:59:52;95882.31;;;14.45;100.00
7824;BME280;3957;48.61947800;9.05303100;2022-07-29T03:01:22;95879.63;;;14.45;100.00
7824;BME280;3957;48.61947800;9.05303100;2022-07-29T03:02:45;95885.25;;;14.44;100.00
7824;BME280;3957;48.61947800;9.05303100;2022-07-29T03:04:09;95886.88;;;14.45;100.00
7824;BME280;3957;48.61947800;9.05303100;2022-07-29T03:05:30;95880.91;;;14.43;100.00
7824;BME280;3957;48.61947800;9.05303100;2022-07-29T03:06:52;95886.53;;;14.41;100.00
7824;BME280;3957;48.61947800;9.05303100;2022-07-29T03:08:14;95888.16;;;14.42;100.00
7824;BME280;3957;48.61947800;9.05303100;2022-07-29T03:09:36;95883.03;;;14.41;100.00
7824;BME280;3957;48.61947800;9.05303100;2022-07-29T03:10:58;95882.78;;;14.42;100.00
7824;BME280;3957;48.61947800;9.05303100;2022-07-29T03:12:22;95891.91;;;14.41;100.00
7824;BME280;3957;48.61947800;9.05303100;2022-07-29T03:13:43;95885.34;;;14.37;100.00
7824;BME280;3957;48.61947800;9.05303100;2022-07-29T03:15:05;95877.50;;;14.36;100.00
7824;BME280;3957;48.61947800;9.05303100;2022-07-29T03:16:26;95888.50;;;14.34;100.00
7824;BME280;3957;48.61947800;9.05303100;2022-07-29T03:17:49;95887.94;;;14.32;100.00
7824;BME280;3957;48.61947800;9.05303100;2022-07-29T03:19:10;95881.38;;;14.28;100.00
7824;BME280;3957;48.61947800;9.05303100;2022-07-29T03:20:31;95887.81;;;14.27;100.00
7824;BME280;3957;48.61947800;9.05303100;2022-07-29T03:21:52;95881.81;;;14.25;100.00
7824;BME280;3957;48.61947800;9.05303100;2022-07-29T03:23:19;95885.69;;;14.29;100.00
7824;BME280;3957;48.61947800;9.05303100;2022-07-29T03:24:40;95884.06;;;14.28;100.00
7824;BME280;3957;48.61947800;9.05303100;2022-07-29T03:26:01;95886.16;;;14.26;100.00
7824;BME280;3957;48.61947800;9.05303100;2022-07-29T03:27:22;95891.41;;;14.21;100.00
7824;BME280;3957;48.61947800;9.05303100;2022-07-29T03:28:43;95892.00;;;14.23;100.00
7824;BME280;3957;48.61947800;9.05303100;2022-07-29T03:30:05;95884.16;;;14.21;100.00
7824;BME280;3957;48.61947800;9.05303100;2022-07-29T03:31:26;95889.31;;;14.23;100.00
7824;BME280;3957;48.61947800;9.05303100;2022-07-29T03:32:47;95888.28;;;14.24;100.00
7824;BME280;3957;48.61947800;9.05303100;2022-07-29T03:34:08;95891.41;;;14.21;100.00
7824;BME280;3957;48.61947800;9.05303100;2022-07-29T03:35:28;95879.84;;;14.20;100.00
7824;BME280;3957;48.61947800;9.05303100;2022-07-29T03:36:51;95884.16;;;14.21;100.00
7824;BME280;3957;48.61947800;9.05303100;2022-07-29T03:38:12;95885.22;;;14.20;100.00
7824;BME280;3957;48.61947800;9.05303100;2022-07-29T03:39:40;95890.84;;;14.19;100.00
7824;BME280;3957;48.61947800;9.05303100;2022-07-29T03:41:09;95884.84;;;14.17;100.00
7824;BME280;3957;48.61947800;9.05303100;2022-07-29T03:42:31;95882.16;;;14.17;100.00
7824;BME280;3957;48.61947800;9.05303100;2022-07-29T03:43:53;95884.03;;;14.16;100.00
7824;BME280;3957;48.61947800;9.05303100;2022-07-29T03:45:17;95880.31;;;14.17;100.00
7824;BME280;3957;48.61947800;9.05303100;2022-07-29T03:46:39;95887.31;;;14.18;100.00
7824;BME280;3957;48.61947800;9.05303100;2022-07-29T03:48:08;95880.31;;;14.17;100.00
7824;BME280;3957;48.61947800;9.05303100;2022-07-29T03:49:30;95883.56;;;14.19;100.00
7824;BME280;3957;48.61947800;9.05303100;2022-07-29T03:50:52;95881.25;;;14.23;100.00
7824;BME280;3957;48.61947800;9.05303100;2022-07-29T03:52:13;95882.28;;;14.22;100.00
7824;BME280;3957;48.61947800;9.05303100;2022-07-29T03:53:34;95883.34;;;14.21;100.00
7824;BME280;3957;48.61947800;9.05303100;2022-07-29T03:54:57;95883.81;;;14.18;100.00
7824;BME280;3957;48.61947800;9.05303100;2022-07-29T03:56:21;95891.06;;;14.17;100.00
7824;BME280;3957;48.61947800;9.05303100;2022-07-29T03:57:44;95881.72;;;14.20;100.00
7824;BME280;3957;48.61947800;9.05303100;2022-07-29T03:59:05;95885.69;;;14.17;100.00
7824;BME280;3957;48.61947800;9.05303100;2022-07-29T04:00:27;95890.22;;;14.17;100.00
7824;BME280;3957;48.61947800;9.05303100;2022-07-29T04:01:49;95889.41;;;14.16;100.00
7824;BME280;3957;48.61947800;9.05303100;2022-07-29T04:03:10;95898.06;;;14.18;100.00
7824;BME280;3957;48.61947800;9.05303100;2022-07-29T04:04:33;95890.22;;;14.17;100.00
7824;BME280;3957;48.61947800;9.05303100;2022-07-29T04:06:03;95894.00;;;14.16;100.00
7824;BME280;3957;48.61947800;9.05303100;2022-07-29T04:07:24;95897.72;;;14.15;100.00
7824;BME280;3957;48.61947800;9.05303100;2022-07-29T04:08:44;95903.91;;;14.15;100.00
7824;BME280;3957;48.61947800;9.05303100;2022-07-29T04:10:06;95900.75;;;14.18;100.00
7824;BME280;3957;48.61947800;9.05303100;2022-07-29T04:11:27;95899.84;;;14.24;100.00
7824;BME280;3957;48.61947800;9.05303100;2022-07-29T04:12:49;95901.25;;;14.27;100.00
7824;BME280;3957;48.61947800;9.05303100;2022-07-29T04:14:09;95903.81;;;14.22;100.00
7824;BME280;3957;48.61947800;9.05303100;2022-07-29T04:15:30;95899.25;;;14.22;100.00
7824;BME280;3957;48.61947800;9.05303100;2022-07-29T04:16:51;95901.94;;;14.22;100.00
7824;BME280;3957;48.61947800;9.05303100;2022-07-29T04:18:13;95905.81;;;14.26;100.00
7824;BME280;3957;48.61947800;9.05303100;2022-07-29T04:19:34;95912.38;;;14.31;100.00
7824;BME280;3957;48.61947800;9.05303100;2022-07-29T04:20:54;95903.84;;;14.34;100.00
7824;BME280;3957;48.61947800;9.05303100;2022-07-29T04:22:15;95901.50;;;14.37;100.00
7824;BME280;3957;48.61947800;9.05303100;2022-07-29T04:23:36;95907.97;;;14.36;100.00
7824;BME280;3957;48.61947800;9.05303100;2022-07-29T04:24:58;95906.66;;;14.39;100.00
7824;BME280;3957;48.61947800;9.05303100;2022-07-29T04:26:20;95906.44;;;14.40;100.00
7824;BME280;3957;48.61947800;9.05303100;2022-07-29T04:27:41;95905.97;;;14.43;100.00
7824;BME280;3957;48.61947800;9.05303100;2022-07-29T04:29:20;95909.00;;;14.47;100.00
7824;BME280;3957;48.61947800;9.05303100;2022-07-29T04:30:41;95907.63;;;14.44;100.00
7824;BME280;3957;48.61947800;9.05303100;2022-07-29T04:32:01;95906.31;;;14.47;100.00
7824;BME280;3957;48.61947800;9.05303100;2022-07-29T04:33:22;95908.56;;;14.50;100.00
7824;BME280;3957;48.61947800;9.05303100;2022-07-29T04:34:43;95910.53;;;14.55;100.00
7824;BME280;3957;48.61947800;9.05303100;2022-07-29T04:36:05;95911.09;;;14.57;100.00
7824;BME280;3957;48.61947800;9.05303100;2022-07-29T04:37:26;95909.94;;;14.53;100.00
7824;BME280;3957;48.61947800;9.05303100;2022-07-29T04:38:47;95919.09;;;14.52;100.00
7824;BME280;3957;48.61947800;9.05303100;2022-07-29T04:40:08;95914.63;;;14.57;100.00
7824;BME280;3957;48.61947800;9.05303100;2022-07-29T04:41:29;95920.19;;;14.62;100.00
7824;BME280;3957;48.61947800;9.05303100;2022-07-29T04:42:50;95919.59;;;14.72;100.00
7824;BME280;3957;48.61947800;9.05303100;2022-07-29T04:44:10;95914.91;;;14.79;100.00
7824;BME280;3957;48.61947800;9.05303100;2022-07-29T04:45:31;95921.81;;;14.99;100.00
7824;BME280;3957;48.61947800;9.05303100;2022-07-29T04:46:52;95913.31;;;15.31;100.00
7824;BME280;3957;48.61947800;9.05303100;2022-07-29T04:48:13;95923.56;;;15.58;100.00
7824;BME280;3957;48.61947800;9.05303100;2022-07-29T04:49:33;95909.91;;;15.64;100.00
7824;BME280;3957;48.61947800;9.05303100;2022-07-29T04:50:56;95916.34;;;15.75;100.00
7824;BME280;3957;48.61947800;9.05303100;2022-07-29T04:52:17;95915.06;;;16.07;100.00
7824;BME280;3957;48.61947800;9.05303100;2022-07-29T04:53:37;95915.53;;;16.04;100.00
7824;BME280;3957;48.61947800;9.05303100;2022-07-29T04:54:58;95916.16;;;16.23;100.00
7824;BME280;3957;48.61947800;9.05303100;2022-07-29T04:56:19;95922.03;;;16.20;100.00
7824;BME280;3957;48.61947800;9.05303100;2022-07-29T04:57:40;95915.16;;;16.29;100.00
7824;BME280;3957;48.61947800;9.05303100;2022-07-29T04:59:00;95914.44;;;16.51;100.00
7824;BME280;3957;48.61947800;9.05303100;2022-07-29T05:00:21;95911.59;;;16.57;100.00
7824;BME280;3957;48.61947800;9.05303100;2022-07-29T05:01:43;95924.13;;;17.20;100.00
7824;BME280;3957;48.61947800;9.05303100;2022-07-29T05:03:04;95916.91;;;17.70;100.00
7824;BME280;3957;48.61947800;9.05303100;2022-07-29T05:04:25;95919.72;;;18.67;100.00
7824;BME280;3957;48.61947800;9.05303100;2022-07-29T05:05:46;95925.75;;;19.12;100.00
7824;BME280;3957;48.61947800;9.05303100;2022-07-29T05:07:06;95919.19;;;19.02;100.00
7824;BME280;3957;48.61947800;9.05303100;2022-07-29T05:08:27;95927.56;;;18.96;100.00
7824;BME280;3957;48.61947800;9.05303100;2022-07-29T05:09:48;95928.13;;;19.51;100.00
7824;BME280;3957;48.61947800;9.05303100;2022-07-29T05:11:09;95932.69;;;20.09;100.00
7824;BME280;3957;48.61947800;9.05303100;2022-07-29T05:12:29;95922.91;;;20.08;100.00
7824;BME280;3957;48.61947800;9.05303100;2022-07-29T05:13:50;95928.41;;;20.54;100.00
7824;BME280;3957;48.61947800;9.05303100;2022-07-29T05:15:11;95924.03;;;21.10;100.00
7824;BME280;3957;48.61947800;9.05303100;2022-07-29T05:16:32;95924.06;;;20.99;100.00
7824;BME280;3957;48.61947800;9.05303100;2022-07-29T05:17:52;95929.25;;;20.70;100.00
7824;BME280;3957;48.61947800;9.05303100;2022-07-29T05:19:13;95927.91;;;20.83;100.00
7824;BME280;3957;48.61947800;9.05303100;2022-07-29T05:20:34;95929.25;;;20.75;100.00
7824;BME280;3957;48.61947800;9.05303100;2022-07-29T05:21:55;95938.47;;;20.33;100.00
7824;BME280;3957;48.61947800;9.05303100;2022-07-29T05:23:15;95937.03;;;20.15;100.00
7824;BME280;3957;48.61947800;9.05303100;2022-07-29T05:24:36;95934.28;;;19.89;100.00
7824;BME280;3957;48.61947800;9.05303100;2022-07-29T05:25:57;95928.03;;;19.88;100.00
7824;BME280;3957;48.61947800;9.05303100;2022-07-29T05:27:18;95929.13;;;19.93;100.00
7824;BME280;3957;48.61947800;9.05303100;2022-07-29T05:28:39;95933.28;;;19.47;100.00
7824;BME280;3957;48.61947800;9.05303100;2022-07-29T05:29:59;95930.09;;;19.08;100.00
7824;BME280;3957;48.61947800;9.05303100;2022-07-29T05:31:20;95934.16;;;18.73;100.00
7824;BME280;3957;48.61947800;9.05303100;2022-07-29T05:32:41;95932.47;;;18.66;100.00
7824;BME280;3957;48.61947800;9.05303100;2022-07-29T05:34:02;95934.22;;;18.45;100.00
7824;BME280;3957;48.61947800;9.05303100;2022-07-29T05:35:23;95931.31;;;18.57;100.00
7824;BME280;3957;48.61947800;9.05303100;2022-07-29T05:36:43;95933.53;;;18.60;100.00
7824;BME280;3957;48.61947800;9.05303100;2022-07-29T05:38:04;95930.00;;;18.92;100.00
7824;BME280;3957;48.61947800;9.05303100;2022-07-29T05:39:25;95934.63;;;19.50;100.00
7824;BME280;3957;48.61947800;9.05303100;2022-07-29T05:40:46;95938.72;;;19.47;100.00
7824;BME280;3957;48.61947800;9.05303100;2022-07-29T05:42:09;95936.34;;;19.66;100.00
7824;BME280;3957;48.61947800;9.05303100;2022-07-29T05:43:30;95941.59;;;19.88;100.00
7824;BME280;3957;48.61947800;9.05303100;2022-07-29T05:44:52;95941.53;;;19.78;100.00
7824;BME280;3957;48.61947800;9.05303100;2022-07-29T05:46:13;95941.88;;;19.82;100.00
7824;BME280;3957;48.61947800;9.05303100;2022-07-29T05:47:34;95944.75;;;19.65;100.00
7824;BME280;3957;48.61947800;9.05303100;2022-07-29T05:48:55;95942.09;;;19.75;100.00
7824;BME280;3957;48.61947800;9.05303100;2022-07-29T05:50:16;95940.94;;;19.61;100.00
7824;BME280;3957;48.61947800;9.05303100;2022-07-29T05:51:37;95941.44;;;20.26;100.00
7824;BME280;3957;48.61947800;9.05303100;2022-07-29T05:52:58;95943.25;;;19.90;100.00
7824;BME280;3957;48.61947800;9.05303100;2022-07-29T05:54:19;95941.16;;;20.28;100.00
7824;BME280;3957;48.61947800;9.05303100;2022-07-29T05:55:39;95939.81;;;20.41;100.00
7824;BME280;3957;48.61947800;9.05303100;2022-07-29T05:57:00;95940.09;;;20.29;100.00
7824;BME280;3957;48.61947800;9.05303100;2022-07-29T05:58:21;95940.28;;;20.01;100.00
7824;BME280;3957;48.61947800;9.05303100;2022-07-29T05:59:42;95943.91;;;19.59;100.00
7824;BME280;3957;48.61947800;9.05303100;2022-07-29T06:01:03;95946.31;;;20.14;100.00
7824;BME280;3957;48.61947800;9.05303100;2022-07-29T06:02:23;95946.94;;;20.72;100.00
7824;BME280;3957;48.61947800;9.05303100;2022-07-29T06:03:44;95936.84;;;20.99;100.00
7824;BME280;3957;48.61947800;9.05303100;2022-07-29T06:05:05;95946.09;;;21.13;100.00
7824;BME280;3957;48.61947800;9.05303100;2022-07-29T06:06:27;95941.78;;;20.76;100.00
7824;BME280;3957;48.61947800;9.05303100;2022-07-29T06:07:48;95952.06;;;21.20;100.00
7824;BME280;3957;48.61947800;9.05303100;2022-07-29T06:09:09;95946.63;;;21.15;94.38
7824;BME280;3957;48.61947800;9.05303100;2022-07-29T06:10:30;95954.81;;;21.10;96.53
7824;BME280;3957;48.61947800;9.05303100;2022-07-29T06:11:51;95958.53;;;21.45;96.93
7824;BME280;3957;48.61947800;9.05303100;2022-07-29T06:13:12;95957.94;;;21.69;93.54
7824;BME280;3957;48.61947800;9.05303100;2022-07-29T06:14:33;95962.75;;;22.42;93.75
7824;BME280;3957;48.61947800;9.05303100;2022-07-29T06:15:55;95962.34;;;22.65;88.05
7824;BME280;3957;48.61947800;9.05303100;2022-07-29T06:17:16;95967.75;;;23.34;85.64
7824;BME280;3957;48.61947800;9.05303100;2022-07-29T06:18:37;95963.47;;;23.52;82.02
7824;BME280;3957;48.61947800;9.05303100;2022-07-29T06:19:57;95965.72;;;23.20;81.73
7824;BME280;3957;48.61947800;9.05303100;2022-07-29T06:21:18;95967.16;;;23.90;81.24
7824;BME280;3957;48.61947800;9.05303100;2022-07-29T06:22:39;95962.56;;;24.48;78.88
7824;BME280;3957;48.61947800;9.05303100;2022-07-29T06:24:00;95968.88;;;24.49;75.83
7824;BME280;3957;48.61947800;9.05303100;2022-07-29T06:25:20;95966.59;;;23.93;70.84
7824;BME280;3957;48.61947800;9.05303100;2022-07-29T06:26:41;95962.94;;;24.41;73.43
7824;BME280;3957;48.61947800;9.05303100;2022-07-29T06:28:03;95965.16;;;24.20;72.88
7824;BME280;3957;48.61947800;9.05303100;2022-07-29T06:29:24;95961.91;;;24.75;73.69
7824;BME280;3957;48.61947800;9.05303100;2022-07-29T06:30:45;95966.56;;;24.37;72.69
7824;BME280;3957;48.61947800;9.05303100;2022-07-29T06:32:05;95967.59;;;24.41;74.11
7824;BME280;3957;48.61947800;9.05303100;2022-07-29T06:33:27;95963.13;;;24.07;71.07
7824;BME280;3957;48.61947800;9.05303100;2022-07-29T06:34:47;95963.03;;;23.69;75.79
7824;BME280;3957;48.61947800;9.05303100;2022-07-29T06:36:08;95973.78;;;23.84;75.73
7824;BME280;3957;48.61947800;9.05303100;2022-07-29T06:37:29;95963.16;;;23.83;74.54
7824;BME280;3957;48.61947800;9.05303100;2022-07-29T06:38:50;95966.22;;;23.76;75.16
7824;BME280;3957;48.61947800;9.05303100;2022-07-29T06:40:11;95965.22;;;24.34;76.04